Time;durP1;ratioP1;P1;durP2;ratioP2;P2;SDS_P1;SDS_P2;PMS_P1;PMS_P2;Temp;Humidity;BMP_temperature;BMP_pressure;BME280_temperature;BME280_humidity;BME280_pressure;Samples;Min_cycle;Max_cycle;Signal;HPM_P1;HPM_P2
2023/08/14 00:01:58;;;;;;;6.55;2.53;;;;;;;17.51;63.97;99725.28;4982108;28;20050;-58
2023/08/14 00:04:24;;;;;;;6.15;1.98;;;;;;;17.50;63.95;99731.44;4983745;28;20042;-61
2023/08/14 00:06:51;;;;;;;4.22;1.95;;;;;;;17.50;63.59;99713.13;4988609;28;20361;-59
2023/08/14 00:09:18;;;;;;;4.93;1.70;;;;;;;17.51;63.80;99706.97;4980770;28;20133;-60
2023/08/14 00:11:45;;;;;;;2.45;2.22;;;;;;;17.49;64.51;99712.25;4989142;28;20136;-56
2023/08/14 00:14:12;;;;;;;3.35;1.95;;;;;;;17.48;64.19;99705.31;4988414;28;20080;-60
2023/08/14 00:16:38;;;;;;;4.82;2.05;;;;;;;17.46;63.79;99712.34;4983687;28;20058;-58
2023/08/14 00:19:05;;;;;;;4.85;2.67;;;;;;;17.44;63.77;99706.34;4985660;28;20061;-58
2023/08/14 00:21:32;;;;;;;4.07;1.15;;;;;;;17.43;64.21;99696.78;4988671;28;20444;-61
2023/08/14 00:23:58;;;;;;;3.05;1.70;;;;;;;17.41;63.72;99709.94;4989114;28;20046;-58
2023/08/14 00:26:25;;;;;;;3.75;0.75;;;;;;;17.41;63.57;99709.94;4988757;28;20438;-60
2023/08/14 00:28:51;;;;;;;3.70;1.92;;;;;;;17.40;64.27;99697.75;4985660;28;20071;-61
2023/08/14 00:31:18;;;;;;;5.22;2.42;;;;;;;17.38;64.08;99691.72;4989214;28;20042;-64
2023/08/14 00:33:45;;;;;;;4.15;2.15;;;;;;;17.39;63.57;99690.78;4993847;28;20561;-59
2023/08/14 00:36:11;;;;;;;4.78;1.83;;;;;;;17.37;64.14;99682.16;4989439;28;20078;-58
2023/08/14 00:38:38;;;;;;;3.97;1.85;;;;;;;17.36;63.75;99679.59;4986554;28;20050;-58
2023/08/14 00:41:05;;;;;;;4.60;2.15;;;;;;;17.35;63.87;99689.19;4987629;28;20046;-57
2023/08/14 00:43:31;;;;;;;2.28;2.08;;;;;;;17.34;64.45;99690.13;4988756;28;20117;-61
2023/08/14 00:46:00;;;;;;;7.10;1.88;;;;;;;17.33;64.18;99683.19;4985026;28;20061;-59
2023/08/14 00:48:27;;;;;;;6.20;1.73;;;;;;;17.32;63.96;99676.22;4988606;28;20042;-61
2023/08/14 00:50:54;;;;;;;5.72;1.73;;;;;;;17.33;64.08;99675.34;4985599;28;20054;-57
2023/08/14 00:53:24;;;;;;;3.85;1.38;;;;;;;17.31;64.82;99666.66;4987317;28;20050;-57
2023/08/14 00:55:52;;;;;;;4.72;1.63;;;;;;;17.30;64.16;99671.03;4986440;28;20129;-60
2023/08/14 00:58:19;;;;;;;6.43;1.88;;;;;;;17.28;64.93;99667.63;4989112;28;20035;-60
2023/08/14 01:00:46;;;;;;;4.70;1.70;;;;;;;17.31;64.20;99669.28;4987725;28;20058;-61
2023/08/14 01:03:13;;;;;;;4.38;1.70;;;;;;;17.29;64.50;99673.75;4989039;28;20468;-57
2023/08/14 01:05:40;;;;;;;4.18;1.92;;;;;;;17.28;63.74;99672.88;4988782;28;20046;-56
2023/08/14 01:08:07;;;;;;;3.60;2.15;;;;;;;17.27;64.42;99675.53;4987753;28;20058;-56
2023/08/14 01:13:32;;;;;;;6.70;0.93;;;;;;;17.23;64.44;99666.97;5066320;27;20392;-60
2023/08/14 01:16:04;;;;;;;2.60;0.80;;;;;;;17.24;65.31;99666.06;5047674;28;20045;-59
2023/08/14 01:18:35;;;;;;;5.22;0.90;;;;;;;17.24;65.22;99657.34;5050006;28;20133;-62
2023/08/14 01:21:21;;;;;;;2.75;0.65;;;;;;;17.17;65.64;99654.97;5053350;28;20037;-61
2023/08/14 01:26:24;;;;;;;5.95;1.38;;;;;;;17.57;65.68;99643.91;5060410;28;20386;-59
2023/08/14 01:28:51;;;;;;;6.05;2.10;;;;;;;17.29;66.94;99644.94;5017829;28;20050;-62
2023/08/14 01:31:18;;;;;;;9.82;2.90;;;;;;;17.21;66.83;99639.97;5014781;28;20053;-59
2023/08/14 01:33:44;;;;;;;3.47;2.03;;;;;;;17.17;66.47;99643.63;5011740;28;20054;-61
2023/08/14 01:36:19;;;;;;;5.82;1.80;;;;;;;17.09;67.06;99636.91;5017757;28;20052;-57
2023/08/14 01:41:34;;;;;;;5.50;0.75;;;;;;;17.06;67.30;99630.94;5100932;27;20394;-61
2023/08/14 01:44:05;;;;;;;5.55;0.90;;;;;;;17.07;67.43;99630.03;5061782;28;20063;-57
2023/08/14 01:46:34;;;;;;;6.78;1.38;;;;;;;17.05;67.42;99634.41;5059241;28;20102;-60
2023/08/14 01:49:02;;;;;;;6.38;1.10;;;;;;;17.02;67.36;99630.16;5063783;28;20047;-56
2023/08/14 01:51:30;;;;;;;8.95;1.55;;;;;;;16.99;67.93;99618.97;5063370;28;20456;-62
2023/08/14 01:53:57;;;;;;;4.55;0.60;;;;;;;16.96;68.32;99626.00;5063143;28;20044;-60
2023/08/14 01:56:24;;;;;;;6.20;1.25;;;;;;;16.93;68.69;99618.25;5062964;28;20561;-57
2023/08/14 01:58:50;;;;;;;5.10;1.15;;;;;;;16.90;69.60;99615.78;5063886;28;20055;-60
2023/08/14 02:01:17;;;;;;;7.43;0.90;;;;;;;16.88;69.23;99622.81;5063076;28;20044;-59
2023/08/14 02:03:44;;;;;;;6.05;1.48;;;;;;;16.84;69.59;99615.97;5055057;28;20103;-63
2023/08/14 02:06:10;;;;;;;10.20;1.13;;;;;;;16.81;69.54;99610.84;5062862;28;20052;-62
2023/08/14 02:08:37;;;;;;;9.63;1.80;;;;;;;16.79;69.73;99608.28;5062119;28;20445;-62
2023/08/14 02:11:08;;;;;;;4.95;1.10;;;;;;;16.76;70.46;99618.03;5069470;28;20048;-62
2023/08/14 02:13:35;;;;;;;5.95;1.17;;;;;;;16.75;70.62;99616.31;5062850;28;20523;-61
2023/08/14 02:16:03;;;;;;;8.63;1.70;;;;;;;16.72;69.68;99616.44;5061875;28;20060;-60
2023/08/14 02:18:29;;;;;;;1.75;0.70;;;;;;;16.68;70.45;99605.19;5060784;28;20107;-56
2023/08/14 02:20:56;;;;;;;5.13;1.38;;;;;;;16.63;70.89;99608.00;5062741;28;20460;-55
2023/08/14 02:23:23;;;;;;;5.95;0.93;;;;;;;16.61;71.10;99604.56;5051913;28;20057;-53
2023/08/14 02:25:53;;;;;;;4.38;1.00;;;;;;;16.57;71.51;99608.19;5059146;28;20059;-56
2023/08/14 02:28:20;;;;;;;4.80;1.20;;;;;;;16.53;72.13;99607.47;5068758;28;20082;-55
2023/08/14 02:30:46;;;;;;;3.95;0.88;;;;;;;16.55;71.38;99595.19;5062015;28;20067;-55
2023/08/14 02:33:13;;;;;;;5.47;1.80;;;;;;;16.53;71.95;99596.16;5063259;28;20052;-49
2023/08/14 02:35:40;;;;;;;2.58;0.75;;;;;;;16.50;72.05;99596.25;5059560;28;20056;-51
2023/08/14 02:38:07;;;;;;;6.13;1.08;;;;;;;16.51;71.80;99590.13;5062736;28;20056;-54
2023/08/14 02:40:33;;;;;;;3.13;0.98;;;;;;;16.52;72.00;99589.22;5060363;28;20045;-56
2023/08/14 02:43:02;;;;;;;4.95;0.95;;;;;;;16.53;72.47;99585.69;5060118;28;20101;-56
2023/08/14 02:45:29;;;;;;;4.88;0.90;;;;;;;16.50;72.54;99580.56;5062005;28;20048;-55
2023/08/14 02:47:56;;;;;;;3.10;0.80;;;;;;;16.51;72.65;99577.06;5059864;28;20060;-53
2023/08/14 02:50:23;;;;;;;2.67;1.48;;;;;;;16.48;72.59;99572.78;5061027;28;20134;-50
2023/08/14 02:52:50;;;;;;;1.95;1.05;;;;;;;16.48;73.07;99567.56;5048646;28;20040;-56
2023/08/14 02:55:17;;;;;;;3.58;0.95;;;;;;;16.44;73.40;99566.81;5046920;28;20059;-51
2023/08/14 02:57:44;;;;;;;4.10;0.90;;;;;;;16.43;73.33;99554.66;5043556;28;20056;-54
2023/08/14 03:00:11;;;;;;;3.55;1.52;;;;;;;16.45;72.50;99560.66;5048060;28;20037;-51
2023/08/14 03:02:38;;;;;;;0.93;0.50;;;;;;;16.44;72.52;99555.50;5048901;28;20071;-49
2023/08/14 03:05:05;;;;;;;2.70;1.08;;;;;;;16.42;72.92;99552.09;5049288;28;20072;-53
2023/08/14 03:07:32;;;;;;;2.33;0.98;;;;;;;16.41;73.18;99551.22;5047990;28;20052;-56
2023/08/14 03:09:59;;;;;;;3.60;1.17;;;;;;;16.40;73.58;99544.31;5048121;28;20087;-50
2023/08/14 03:12:25;;;;;;;5.80;1.73;;;;;;;16.40;73.35;99544.31;5045395;28;20122;-52
2023/08/14 03:14:52;;;;;;;4.30;0.50;;;;;;;16.36;73.88;99545.31;5048709;28;20743;-47
2023/08/14 03:17:18;;;;;;;4.25;0.80;;;;;;;16.38;73.86;99546.09;5047821;28;20068;-53
2023/08/14 03:19:45;;;;;;;3.42;1.23;;;;;;;16.38;74.12;99545.28;5048676;28;20513;-53
2023/08/14 03:22:12;;;;;;;2.85;1.40;;;;;;;16.37;74.01;99541.81;5048585;28;20523;-56
2023/08/14 03:24:38;;;;;;;2.42;0.95;;;;;;;16.39;73.47;99547.84;5046893;28;20055;-49
2023/08/14 03:27:05;;;;;;;3.45;0.60;;;;;;;16.39;73.92;99542.63;5046936;28;20064;-52
2023/08/14 03:29:32;;;;;;;4.55;1.33;;;;;;;16.36;73.58;99545.31;5048619;28;20049;-51
2023/08/14 03:31:58;;;;;;;4.25;1.08;;;;;;;16.39;73.85;99542.63;5045384;28;20045;-50
2023/08/14 03:34:25;;;;;;;4.70;1.17;;;;;;;16.40;74.21;99533.84;5044817;28;20645;-49
2023/08/14 03:36:51;;;;;;;1.85;0.70;;;;;;;16.40;74.44;99536.47;5046503;28;20053;-49
2023/08/14 03:39:18;;;;;;;7.70;0.75;;;;;;;16.35;74.72;99530.53;5046946;28;20493;-49
2023/08/14 03:41:45;;;;;;;3.78;0.82;;;;;;;16.38;75.03;99519.97;5047290;28;20688;-45
2023/08/14 03:44:11;;;;;;;5.28;0.98;;;;;;;16.38;74.41;99524.38;5048101;28;20052;-48
2023/08/14 03:46:38;;;;;;;2.67;1.08;;;;;;;16.34;75.82;99520.16;5048078;28;20068;-50
2023/08/14 03:49:05;;;;;;;3.83;1.20;;;;;;;16.35;74.99;99509.63;5047958;28;20469;-49
2023/08/14 03:51:32;;;;;;;2.30;0.70;;;;;;;16.31;75.39;99503.66;5047280;28;20049;-49
2023/08/14 03:53:58;;;;;;;1.95;0.95;;;;;;;16.30;75.33;99506.34;5047411;28;20057;-51
2023/08/14 03:56:25;;;;;;;2.15;0.90;;;;;;;16.31;75.40;99497.56;5043176;28;20045;-50
2023/08/14 03:58:52;;;;;;;3.63;0.70;;;;;;;16.30;76.11;99501.97;5048083;28;20657;-51
2023/08/14 04:01:19;;;;;;;1.13;0.40;;;;;;;16.29;75.88;99499.41;5047559;28;20051;-52
2023/08/14 04:03:45;;;;;;;2.40;0.55;;;;;;;16.31;75.09;99500.19;5042855;28;20079;-52
2023/08/14 04:06:12;;;;;;;2.15;1.10;;;;;;;16.30;75.64;99501.09;5047572;28;20067;-50
2023/08/14 04:08:39;;;;;;;3.28;0.50;;;;;;;16.26;76.39;99499.50;5047452;28;20119;-52
2023/08/14 04:11:06;;;;;;;3.63;1.08;;;;;;;16.28;76.42;99498.53;5043058;28;20432;-52
2023/08/14 04:13:33;;;;;;;2.75;1.05;;;;;;;16.29;75.99;99495.03;5045792;28;20057;-53
2023/08/14 04:16:00;;;;;;;1.48;0.65;;;;;;;16.30;76.27;99485.44;5046630;28;20055;-51
2023/08/14 04:18:28;;;;;;;1.92;1.10;;;;;;;16.27;76.72;99485.53;5049738;28;20438;-52
2023/08/14 04:20:55;;;;;;;1.67;0.82;;;;;;;16.31;75.85;99481.91;5047978;28;20041;-52
2023/08/14 04:23:23;;;;;;;1.95;0.55;;;;;;;16.30;76.28;99485.44;5053261;28;20049;-50
2023/08/14 04:25:51;;;;;;;3.95;1.35;;;;;;;16.30;76.26;99490.66;5046649;28;20052;-51
2023/08/14 04:28:18;;;;;;;2.42;0.73;;;;;;;16.31;75.91;99488.00;5042950;28;20049;-52
2023/08/14 04:30:45;;;;;;;3.35;1.05;;;;;;;16.34;75.63;99486.19;5041508;28;20047;-52
2023/08/14 04:33:11;;;;;;;2.40;0.63;;;;;;;16.35;75.83;99488.72;5044515;28;20697;-48
2023/08/14 04:35:38;;;;;;;3.05;1.23;;;;;;;16.30;76.23;99485.44;5044933;28;20513;-51
2023/08/14 04:38:05;;;;;;;2.75;1.27;;;;;;;16.34;76.18;99489.63;5047457;28;20063;-52
2023/08/14 04:40:32;;;;;;;4.68;0.93;;;;;;;16.36;76.32;99485.22;5046496;28;20418;-52
2023/08/14 04:42:58;;;;;;;2.05;0.82;;;;;;;16.35;76.00;99478.25;5047050;28;20064;-52
2023/08/14 04:45:25;;;;;;;6.43;0.80;;;;;;;16.31;76.09;99474.06;5046321;28;20520;-53
2023/08/14 04:47:52;;;;;;;3.17;0.98;;;;;;;16.28;76.76;99469.81;5046324;28;20044;-50
2023/08/14 04:50:22;;;;;;;2.72;1.17;;;;;;;16.31;76.20;99476.66;5046834;28;20606;-54
2023/08/14 04:52:49;;;;;;;2.60;1.17;;;;;;;16.32;76.32;99475.78;5047308;28;20652;-52
2023/08/14 04:55:16;;;;;;;1.65;1.05;;;;;;;16.30;76.88;99474.97;5047062;28;20057;-50
2023/08/14 04:57:43;;;;;;;4.30;1.48;;;;;;;16.31;76.33;99467.09;5046321;28;20064;-52
2023/08/14 05:00:10;;;;;;;4.38;1.10;;;;;;;16.30;76.38;99464.53;5046211;28;20049;-51
2023/08/14 05:02:37;;;;;;;6.80;0.93;;;;;;;16.28;76.42;99461.13;5043889;28;20051;-48
2023/08/14 05:05:04;;;;;;;1.40;0.93;;;;;;;16.29;76.50;99468.06;5046710;28;20460;-53
2023/08/14 05:07:30;;;;;;;2.38;0.70;;;;;;;16.28;76.92;99467.19;5046069;28;20064;-55
2023/08/14 05:09:57;;;;;;;3.65;1.80;;;;;;;16.29;76.72;99468.06;5045755;28;20508;-47
2023/08/14 05:12:24;;;;;;;3.03;1.17;;;;;;;16.30;76.81;99469.75;5046788;28;20087;-55
2023/08/14 05:14:52;;;;;;;3.72;1.60;;;;;;;16.31;76.67;99472.31;5045667;28;20103;-50
2023/08/14 05:17:20;;;;;;;3.95;1.30;;;;;;;16.29;77.06;99470.66;5047166;28;20049;-47
2023/08/14 05:19:47;;;;;;;4.68;0.98;;;;;;;16.26;77.00;99473.38;5046072;28;20124;-52
2023/08/14 05:22:13;;;;;;;4.15;0.90;;;;;;;16.26;76.76;99483.84;5046294;28;20049;-52
2023/08/14 05:24:40;;;;;;;3.35;1.23;;;;;;;16.29;76.92;99473.28;5045834;28;20072;-49
2023/08/14 05:27:07;;;;;;;2.00;1.05;;;;;;;16.28;77.30;99477.63;5046890;28;20044;-50
2023/08/14 05:29:33;;;;;;;2.83;1.35;;;;;;;16.27;77.35;99475.94;5044238;28;20509;-51
2023/08/14 05:32:00;;;;;;;3.03;1.02;;;;;;;16.27;77.88;99475.06;5041332;28;20044;-52
2023/08/14 05:34:27;;;;;;;4.30;1.58;;;;;;;16.28;77.45;99475.03;5045540;28;20045;-52
2023/08/14 05:36:53;;;;;;;4.57;1.45;;;;;;;16.33;77.64;99474.88;5046131;28;20045;-53
2023/08/14 05:39:20;;;;;;;3.38;1.35;;;;;;;16.36;76.85;99474.78;5046073;28;20049;-49
2023/08/14 05:41:47;;;;;;;5.95;1.60;;;;;;;16.36;77.33;99482.59;5046042;28;20409;-49
2023/08/14 05:44:13;;;;;;;6.00;1.88;;;;;;;16.39;76.83;99481.63;5045626;28;20056;-52
2023/08/14 05:46:42;;;;;;;6.32;1.33;;;;;;;16.43;76.70;99481.47;5046227;28;20076;-53
2023/08/14 05:49:13;;;;;;;4.13;1.40;;;;;;;16.45;77.34;99484.03;5042327;28;20052;-49
2023/08/14 05:51:40;;;;;;;3.40;1.15;;;;;;;16.45;76.97;99492.72;5045439;28;20047;-50
2023/08/14 05:54:06;;;;;;;3.90;1.85;;;;;;;16.44;77.39;99488.41;5045728;28;20049;-54
2023/08/14 05:56:33;;;;;;;2.85;1.60;;;;;;;16.45;77.28;99487.50;5046153;28;20045;-52
2023/08/14 05:59:00;;;;;;;3.38;1.63;;;;;;;16.47;76.91;99494.41;5046141;28;20049;-49
2023/08/14 06:01:26;;;;;;;3.53;1.30;;;;;;;16.44;77.30;99493.63;5045447;28;20037;-51
2023/08/14 06:03:54;;;;;;;3.05;1.67;;;;;;;16.44;76.88;99493.63;5045065;28;20080;-50
2023/08/14 06:06:22;;;;;;;5.10;1.95;;;;;;;16.47;76.91;99487.44;5040397;28;20049;-52
2023/08/14 06:08:48;;;;;;;4.93;1.50;;;;;;;16.48;77.06;99493.53;5046189;28;20140;-51
2023/08/14 06:11:15;;;;;;;2.83;1.42;;;;;;;16.47;77.39;99489.19;5044805;28;20440;-50
2023/08/14 06:13:41;;;;;;;4.28;1.35;;;;;;;16.51;76.69;99494.25;5043829;28;20404;-50
2023/08/14 06:16:08;;;;;;;2.58;1.42;;;;;;;16.53;76.82;99491.59;5045746;28;20049;-49
2023/08/14 06:18:35;;;;;;;4.03;1.85;;;;;;;16.54;76.64;99486.31;5041234;28;20076;-49
2023/08/14 06:21:01;;;;;;;5.60;1.38;;;;;;;16.55;76.64;99479.34;5044819;28;20115;-52
2023/08/14 06:23:28;;;;;;;2.25;0.80;;;;;;;16.57;76.93;99490.56;5045939;28;20052;-51
2023/08/14 06:25:56;;;;;;;5.22;1.73;;;;;;;16.59;76.95;99486.16;5045446;28;20053;-51
2023/08/14 06:28:23;;;;;;;2.05;0.95;;;;;;;16.63;76.43;99485.13;5050041;28;20049;-49
2023/08/14 06:30:50;;;;;;;2.80;1.55;;;;;;;16.65;77.38;99487.69;5047845;28;20049;-48
2023/08/14 06:33:16;;;;;;;2.38;1.02;;;;;;;16.67;77.08;99494.56;5049534;28;20110;-50
2023/08/14 06:35:43;;;;;;;2.25;1.10;;;;;;;16.68;76.49;99496.25;5049063;28;20049;-49
2023/08/14 06:38:10;;;;;;;2.40;1.10;;;;;;;16.70;77.23;99490.97;5049330;28;20095;-48
2023/08/14 06:40:36;;;;;;;4.95;1.58;;;;;;;16.75;76.96;99485.59;5049469;28;20041;-50
2023/08/14 06:43:06;;;;;;;2.78;1.58;;;;;;;16.75;76.99;99480.34;5044537;28;20045;-51
2023/08/14 06:45:33;;;;;;;3.03;1.90;;;;;;;16.75;76.41;99485.59;5049080;28;20045;-51
2023/08/14 06:47:59;;;;;;;2.20;1.25;;;;;;;16.79;76.43;99481.94;5049286;28;20048;-49
2023/08/14 06:50:26;;;;;;;3.05;1.60;;;;;;;16.83;77.38;99483.53;5049211;28;20049;-45
2023/08/14 06:52:53;;;;;;;3.75;2.05;;;;;;;16.84;77.29;99474.75;5043442;28;20469;-49
2023/08/14 06:55:20;;;;;;;4.22;2.40;;;;;;;16.90;76.83;99469.31;5048814;28;20044;-49
2023/08/14 06:57:47;;;;;;;2.65;1.60;;;;;;;16.91;76.34;99480.59;5046986;28;20041;-51
2023/08/14 07:00:14;;;;;;;3.38;2.35;;;;;;;16.92;76.86;99477.94;5049215;28;20060;-51
2023/08/14 07:02:43;;;;;;;3.45;1.67;;;;;;;16.93;77.04;99463.94;5048566;28;20057;-51
2023/08/14 07:05:10;;;;;;;4.00;1.65;;;;;;;16.96;76.54;99458.59;5048621;28;20698;-48
2023/08/14 07:07:38;;;;;;;2.88;1.58;;;;;;;16.97;76.63;99462.06;5047901;28;20055;-54
2023/08/14 07:10:06;;;;;;;3.75;1.20;;;;;;;16.98;76.54;99473.41;5048739;28;20064;-49
2023/08/14 07:12:33;;;;;;;3.58;1.58;;;;;;;17.01;77.00;99475.88;5048796;28;20049;-51
2023/08/14 07:15:00;;;;;;;3.40;1.95;;;;;;;17.04;76.08;99474.00;5048991;28;20055;-47
2023/08/14 07:17:27;;;;;;;2.97;1.35;;;;;;;17.06;76.89;99471.34;5047945;28;20057;-53
2023/08/14 07:19:54;;;;;;;4.45;1.55;;;;;;;17.09;76.97;99479.94;5028216;28;20569;-48
2023/08/14 07:22:21;;;;;;;8.27;2.65;;;;;;;17.14;76.73;99486.75;5047225;28;20067;-53
2023/08/14 07:24:48;;;;;;;4.20;1.90;;;;;;;17.15;76.17;99475.34;5048501;28;20662;-57
2023/08/14 07:27:14;;;;;;;8.10;1.77;;;;;;;17.18;76.62;99483.09;5047281;28;20048;-50
2023/08/14 07:29:41;;;;;;;4.38;1.95;;;;;;;17.19;76.22;99485.66;5048628;28;20567;-52
2023/08/14 07:32:11;;;;;;;4.68;1.85;;;;;;;17.19;76.93;99485.66;5039960;28;20037;-51
2023/08/14 07:34:37;;;;;;;5.35;2.55;;;;;;;17.21;76.87;99482.97;5048936;28;20098;-48
2023/08/14 07:37:04;;;;;;;7.25;2.33;;;;;;;17.20;76.27;99482.13;5053240;28;20055;-50
2023/08/14 07:39:31;;;;;;;6.25;2.25;;;;;;;17.26;77.23;99480.19;5042931;28;20041;-50
2023/08/14 07:41:58;;;;;;;5.70;2.60;;;;;;;17.31;76.47;99483.47;5047863;28;20494;-52
2023/08/14 07:44:25;;;;;;;4.40;1.88;;;;;;;17.36;76.08;99485.91;5048777;28;20056;-53
2023/08/14 07:46:52;;;;;;;4.75;2.20;;;;;;;17.38;77.02;99479.69;5049023;28;20427;-47
2023/08/14 07:49:18;;;;;;;3.65;1.83;;;;;;;17.41;77.00;99484.81;5047957;28;20060;-50
2023/08/14 07:51:45;;;;;;;4.20;2.45;;;;;;;17.46;76.95;99493.31;5046653;28;20453;-52
2023/08/14 07:54:12;;;;;;;7.00;2.38;;;;;;;17.51;77.01;99479.19;5044838;28;20610;-52
2023/08/14 07:56:38;;;;;;;4.15;2.08;;;;;;;17.55;76.59;99470.28;5048225;28;20056;-52
2023/08/14 07:59:05;;;;;;;4.05;1.98;;;;;;;17.59;76.37;99484.97;5048077;28;20456;-52
2023/08/14 08:01:32;;;;;;;4.60;2.28;;;;;;;17.57;76.42;99473.72;5047861;28;20079;-52
2023/08/14 08:03:59;;;;;;;2.90;2.10;;;;;;;17.59;76.45;99482.34;5048106;28;20121;-52
2023/08/14 08:06:26;;;;;;;5.60;2.08;;;;;;;17.63;76.59;99468.19;5046554;28;20048;-52
2023/08/14 08:08:53;;;;;;;7.78;2.20;;;;;;;17.67;76.51;99466.31;5047274;28;20394;-47
2023/08/14 08:11:21;;;;;;;7.22;2.05;;;;;;;17.70;76.35;99474.88;5046439;28;20041;-52
2023/08/14 08:13:47;;;;;;;5.07;2.03;;;;;;;17.75;76.23;99484.31;5048229;28;20052;-53
2023/08/14 08:16:14;;;;;;;3.85;1.83;;;;;;;17.77;76.83;99486.00;5047116;28;20053;-52
2023/08/14 08:18:41;;;;;;;4.00;2.13;;;;;;;17.84;76.27;99470.84;5046590;28;20072;-52
2023/08/14 08:21:07;;;;;;;4.00;1.83;;;;;;;17.87;76.05;99470.72;5049654;28;20512;-51
2023/08/14 08:23:34;;;;;;;5.28;1.30;;;;;;;17.91;76.37;99474.06;5054602;28;20045;-54
2023/08/14 08:26:01;;;;;;;3.08;1.33;;;;;;;17.92;76.46;99474.00;5046702;28;20728;-51
2023/08/14 08:28:27;;;;;;;4.35;1.70;;;;;;;17.92;76.24;99468.75;5046868;28;20120;-50
2023/08/14 08:30:54;;;;;;;8.00;2.00;;;;;;;17.89;77.11;99463.66;5040875;28;20131;-52
2023/08/14 08:33:21;;;;;;;4.10;1.50;;;;;;;17.86;77.00;99466.38;5046592;28;20053;-56
2023/08/14 08:35:53;;;;;;;7.07;1.75;;;;;;;17.84;76.77;99455.13;5046361;28;20045;-50
2023/08/14 08:38:20;;;;;;;4.88;1.55;;;;;;;17.86;76.88;99461.16;5047184;28;20084;-51
2023/08/14 08:40:49;;;;;;;3.28;1.35;;;;;;;17.89;76.78;99474.13;5047002;28;20060;-52
2023/08/14 08:43:16;;;;;;;5.63;1.42;;;;;;;17.87;77.30;99475.97;5047172;28;20484;-50
2023/08/14 08:45:48;;;;;;;2.50;0.70;;;;;;;17.94;77.26;99472.16;5046589;28;20037;-51
2023/08/14 08:48:20;;;;;;;2.97;1.48;;;;;;;17.95;77.72;99468.63;5044365;28;20052;-50
2023/08/14 08:50:48;;;;;;;2.58;0.75;;;;;;;17.93;77.28;99456.53;5045246;28;20053;-50
2023/08/14 08:53:18;;;;;;;2.65;1.50;;;;;;;17.91;77.84;99446.09;5047235;28;20056;-52
2023/08/14 08:55:46;;;;;;;2.65;0.80;;;;;;;17.84;78.13;99440.25;5046816;28;20064;-52
2023/08/14 08:58:15;;;;;;;3.25;1.08;;;;;;;17.90;77.79;99449.63;5046233;28;20045;-53
2023/08/14 09:00:43;;;;;;;2.03;1.08;;;;;;;17.86;78.35;99437.56;5044456;28;20045;-47
2023/08/14 09:03:10;;;;;;;2.92;1.23;;;;;;;17.85;78.41;99425.41;5046698;28;20058;-50
2023/08/14 09:05:39;;;;;;;2.53;1.40;;;;;;;17.88;78.42;99409.56;5046385;28;20118;-50
2023/08/14 09:08:08;;;;;;;5.03;2.22;;;;;;;17.90;79.03;99412.94;5046448;28;20056;-50
2023/08/14 09:10:35;;;;;;;1.92;0.55;;;;;;;18.08;78.98;99405.22;5045115;28;20064;-50
2023/08/14 09:13:01;;;;;;;2.47;1.05;;;;;;;18.18;79.25;99416.16;5043145;28;20056;-49
2023/08/14 09:15:35;;;;;;;2.65;0.73;;;;;;;18.37;78.99;99424.91;5043507;28;20659;-49
2023/08/14 09:18:02;;;;;;;2.17;1.38;;;;;;;18.88;79.39;99420.88;5046252;28;20048;-50
2023/08/14 09:20:29;;;;;;;2.47;0.98;;;;;;;19.38;78.35;99418.50;5046585;28;20126;-50
2023/08/14 09:22:57;;;;;;;1.65;1.17;;;;;;;19.77;77.25;99416.56;5046802;28;20041;-49
2023/08/14 09:25:25;;;;;;;2.75;0.75;;;;;;;19.95;76.00;99409.50;5046864;28;20072;-53
2023/08/14 09:27:55;;;;;;;1.45;0.88;;;;;;;19.87;75.18;99403.81;5040319;28;20045;-51
2023/08/14 09:30:23;;;;;;;;;;;;;;;19.75;75.01;99405.28;5042630;28;20052;-53
2023/08/14 09:32:50;;;;;;;1.48;0.80;;;;;;;19.94;75.17;99410.44;5041894;28;20569;-52
2023/08/14 09:35:17;;;;;;;2.30;0.82;;;;;;;20.14;74.67;99400.69;5046117;28;20095;-55
2023/08/14 09:37:46;;;;;;;1.08;0.50;;;;;;;20.31;74.24;99406.81;5046788;28;20049;-55
2023/08/14 09:40:16;;;;;;;1.40;0.70;;;;;;;20.32;74.28;99405.88;5045526;28;20588;-53
2023/08/14 09:45:23;;;;;;;2.58;0.50;;;;;;;20.37;73.43;99409.13;5059844;27;20389;-54
2023/08/14 09:47:56;;;;;;;1.95;0.80;;;;;;;20.35;73.35;99405.72;5052182;28;20515;-56
2023/08/14 09:50:27;;;;;;;1.38;0.75;;;;;;;20.33;73.89;99410.22;5061466;28;20139;-57
2023/08/14 09:52:59;;;;;;;2.25;1.10;;;;;;;20.38;73.23;99413.44;5042732;28;20052;-58
2023/08/14 09:55:27;;;;;;;2.83;0.93;;;;;;;20.35;73.08;99414.47;5025952;28;20136;-59
2023/08/14 09:57:55;;;;;;;2.05;1.23;;;;;;;20.25;73.04;99408.84;5043817;28;20045;-58
2023/08/14 10:00:26;;;;;;;2.45;0.75;;;;;;;20.16;73.12;99396.19;5043616;28;20045;-57
2023/08/14 10:02:54;;;;;;;2.25;1.10;;;;;;;20.13;73.13;99409.50;5024868;28;20048;-57
2023/08/14 10:05:21;;;;;;;3.42;1.38;;;;;;;20.16;73.34;99409.31;5043510;28;20099;-56
2023/08/14 10:07:49;;;;;;;4.90;1.20;;;;;;;20.06;72.99;99414.22;5044015;28;20532;-59
2023/08/14 10:10:18;;;;;;;3.20;0.93;;;;;;;20.03;73.13;99404.72;5040058;28;20056;-57
2023/08/14 10:12:56;;;;;;;2.55;1.42;;;;;;;20.03;73.09;99409.97;5039913;28;20589;-57
2023/08/14 10:15:31;;;;;;;2.42;1.30;;;;;;;20.20;73.32;99403.00;5053506;28;20536;-53
2023/08/14 10:18:03;;;;;;;1.70;1.00;;;;;;;20.27;72.97;99401.72;5055642;28;20057;-58
2023/08/14 10:20:34;;;;;;;4.47;1.60;;;;;;;20.28;73.26;99408.69;5034077;28;20049;-57
2023/08/14 10:23:02;;;;;;;3.40;1.75;;;;;;;20.28;72.61;99413.94;5042298;28;20047;-57
2023/08/14 10:25:29;;;;;;;6.18;1.90;;;;;;;20.21;73.05;99402.06;5044863;28;20316;-57
2023/08/14 10:27:56;;;;;;;5.90;1.58;;;;;;;20.11;72.81;99401.69;5037221;28;20171;-57
2023/08/14 10:30:24;;;;;;;2.47;1.23;;;;;;;20.11;72.58;99395.59;5040634;28;20053;-58
2023/08/14 10:32:52;;;;;;;5.53;2.03;;;;;;;20.10;73.04;99409.66;5039778;28;20049;-58
2023/08/14 10:35:21;;;;;;;4.78;2.00;;;;;;;20.11;72.07;99398.22;5043091;28;20069;-57
2023/08/14 10:37:48;;;;;;;6.57;1.70;;;;;;;20.06;72.94;99395.00;5043308;28;20049;-57
2023/08/14 10:40:34;;;;;;;5.75;2.05;;;;;;;20.04;73.15;99401.16;5024486;28;20111;-58
2023/08/14 10:43:01;;;;;;;4.35;2.03;;;;;;;20.06;73.57;99408.13;5042292;28;20136;-57
2023/08/14 10:45:29;;;;;;;8.65;2.03;;;;;;;20.09;73.43;99394.84;5053665;28;20053;-55
2023/08/14 10:48:07;;;;;;;7.72;2.30;;;;;;;20.04;73.16;99401.16;5052324;28;20043;-59
2023/08/14 10:50:34;;;;;;;4.45;2.38;;;;;;;20.13;73.07;99391.09;5044704;28;20045;-54
2023/08/14 10:53:03;;;;;;;6.57;2.55;;;;;;;20.12;73.21;99397.28;5062109;28;20052;-59
2023/08/14 10:55:41;;;;;;;5.00;1.88;;;;;;;20.12;72.97;99392.00;5055507;28;20123;-57
2023/08/14 11:01:06;;;;;;;6.32;2.30;;;;;;;20.18;73.05;99396.97;5050037;27;20392;-59
2023/08/14 11:03:53;;;;;;;4.57;1.83;;;;;;;20.12;72.86;99390.25;5025868;28;20037;-57
2023/08/14 11:06:23;;;;;;;3.08;1.92;;;;;;;20.16;73.04;99394.41;5018993;28;20038;-61
2023/08/14 11:08:57;;;;;;;3.92;1.63;;;;;;;20.18;72.83;99394.31;5016759;28;20103;-57
2023/08/14 11:11:25;;;;;;;2.83;1.55;;;;;;;20.19;72.85;99382.88;5023689;28;20082;-58
2023/08/14 11:13:53;;;;;;;5.45;2.60;;;;;;;20.23;73.12;99379.16;5016917;28;20076;-58
2023/08/14 11:16:21;;;;;;;5.25;1.88;;;;;;;20.27;72.90;99380.69;5014013;28;20037;-59
2023/08/14 11:18:47;;;;;;;4.22;1.45;;;;;;;20.26;72.71;99380.75;5033376;28;20128;-58
2023/08/14 11:21:14;;;;;;;5.53;2.03;;;;;;;20.22;72.78;99381.84;5027311;28;20121;-57
2023/08/14 11:23:56;;;;;;;2.85;1.17;;;;;;;20.15;72.85;99381.34;5016198;28;20128;-57
2023/08/14 11:26:27;;;;;;;4.78;2.05;;;;;;;20.21;73.22;99377.53;5018109;28;20060;-58
2023/08/14 11:28:54;;;;;;;7.07;2.25;;;;;;;20.16;73.06;99367.25;5024146;28;20062;-59
2023/08/14 11:31:21;;;;;;;4.57;2.40;;;;;;;20.09;73.59;99372.00;5023340;28;20049;-59
2023/08/14 11:34:00;;;;;;;4.88;1.70;;;;;;;20.12;73.30;99355.22;5013027;28;20568;-59
2023/08/14 11:36:27;;;;;;;2.97;1.35;;;;;;;20.16;73.71;99364.63;5011621;28;20573;-58
2023/08/14 11:39:00;;;;;;;3.92;2.20;;;;;;;20.18;73.58;99352.28;5019824;28;20084;-59
2023/08/14 11:41:27;;;;;;;5.22;1.67;;;;;;;20.27;73.55;99337.78;5021020;28;20049;-58
2023/08/14 11:43:56;;;;;;;;;;;;;;;20.21;73.90;99333.69;5017842;28;20630;-57
2023/08/14 11:46:23;;;;;;;11.35;2.42;;;;;;;20.39;73.69;99325.72;5015303;28;19922;-58
2023/08/14 11:48:50;;;;;;;4.47;1.75;;;;;;;20.57;73.81;99320.38;5032426;28;20045;-58
2023/08/14 11:51:18;;;;;;;3.08;1.20;;;;;;;20.72;73.53;99309.00;5035304;28;20112;-54